sensor_id;sensor_type;location;lat;lon;timestamp;temperature;humidity
30244;DHT22;64022;53.652;9.792;2023-10-31T00:01:48;21.30;68.60
30244;DHT22;64022;53.652;9.792;2023-10-31T00:04:14;21.30;68.60
30244;DHT22;64022;53.652;9.792;2023-10-31T00:06:40;21.30;68.60
30244;DHT22;64022;53.652;9.792;2023-10-31T00:09:05;21.30;68.60
30244;DHT22;64022;53.652;9.792;2023-10-31T00:11:31;21.30;68.60
30244;DHT22;64022;53.652;9.792;2023-10-31T00:13:56;21.30;68.60
30244;DHT22;64022;53.652;9.792;2023-10-31T00:16:21;21.30;68.60
30244;DHT22;64022;53.652;9.792;2023-10-31T00:18:47;21.30;68.60
30244;DHT22;64022;53.652;9.792;2023-10-31T00:21:12;21.30;68.60
30244;DHT22;64022;53.652;9.792;2023-10-31T00:23:44;21.30;68.60
30244;DHT22;64022;53.652;9.792;2023-10-31T00:26:10;21.30;68.60
30244;DHT22;64022;53.652;9.792;2023-10-31T00:28:35;21.30;68.60
30244;DHT22;64022;53.652;9.792;2023-10-31T00:31:01;21.30;68.60
30244;DHT22;64022;53.652;9.792;2023-10-31T00:33:26;21.30;68.60
30244;DHT22;64022;53.652;9.792;2023-10-31T00:35:52;21.30;68.60
30244;DHT22;64022;53.652;9.792;2023-10-31T00:38:17;21.30;68.60
30244;DHT22;64022;53.652;9.792;2023-10-31T00:40:43;21.30;68.60
30244;DHT22;64022;53.652;9.792;2023-10-31T00:43:08;21.30;68.60
30244;DHT22;64022;53.652;9.792;2023-10-31T00:45:34;21.30;68.60
30244;DHT22;64022;53.652;9.792;2023-10-31T00:47:59;21.30;68.70
30244;DHT22;64022;53.652;9.792;2023-10-31T00:50:25;21.30;68.60
30244;DHT22;64022;53.652;9.792;2023-10-31T00:52:50;21.30;68.60
30244;DHT22;64022;53.652;9.792;2023-10-31T00:55:16;21.30;68.70
30244;DHT22;64022;53.652;9.792;2023-10-31T00:57:41;21.30;68.60
30244;DHT22;64022;53.652;9.792;2023-10-31T01:00:07;21.30;68.60
30244;DHT22;64022;53.652;9.792;2023-10-31T01:02:34;21.30;68.70
30244;DHT22;64022;53.652;9.792;2023-10-31T01:04:59;21.30;68.70
30244;DHT22;64022;53.652;9.792;2023-10-31T01:07:24;21.30;68.70
30244;DHT22;64022;53.652;9.792;2023-10-31T01:09:50;21.30;68.70
30244;DHT22;64022;53.652;9.792;2023-10-31T01:12:15;21.30;68.70
30244;DHT22;64022;53.652;9.792;2023-10-31T01:14:41;21.30;68.70
30244;DHT22;64022;53.652;9.792;2023-10-31T01:17:06;21.30;68.70
30244;DHT22;64022;53.652;9.792;2023-10-31T01:19:32;21.30;68.70
30244;DHT22;64022;53.652;9.792;2023-10-31T01:21:57;21.30;68.70
30244;DHT22;64022;53.652;9.792;2023-10-31T01:24:23;21.30;68.70
30244;DHT22;64022;53.652;9.792;2023-10-31T01:26:49;21.30;68.70
30244;DHT22;64022;53.652;9.792;2023-10-31T01:29:14;21.30;68.80
30244;DHT22;64022;53.652;9.792;2023-10-31T01:31:43;21.30;68.70
30244;DHT22;64022;53.652;9.792;2023-10-31T01:34:08;21.30;68.70
30244;DHT22;64022;53.652;9.792;2023-10-31T01:36:34;21.30;68.70
30244;DHT22;64022;53.652;9.792;2023-10-31T01:38:59;21.30;68.70
30244;DHT22;64022;53.652;9.792;2023-10-31T01:41:25;21.30;68.70
30244;DHT22;64022;53.652;9.792;2023-10-31T01:43:50;21.30;68.70
30244;DHT22;64022;53.652;9.792;2023-10-31T01:46:16;21.30;68.80
30244;DHT22;64022;53.652;9.792;2023-10-31T01:48:41;21.30;68.80
30244;DHT22;64022;53.652;9.792;2023-10-31T01:51:07;21.30;68.70
30244;DHT22;64022;53.652;9.792;2023-10-31T01:53:33;21.30;68.70
30244;DHT22;64022;53.652;9.792;2023-10-31T01:55:59;21.30;68.70
30244;DHT22;64022;53.652;9.792;2023-10-31T01:58:34;21.30;68.80
30244;DHT22;64022;53.652;9.792;2023-10-31T02:01:00;21.30;68.80
30244;DHT22;64022;53.652;9.792;2023-10-31T02:03:28;21.30;68.80
30244;DHT22;64022;53.652;9.792;2023-10-31T02:05:54;21.30;68.80
30244;DHT22;64022;53.652;9.792;2023-10-31T02:08:20;21.30;68.80
30244;DHT22;64022;53.652;9.792;2023-10-31T02:10:45;21.30;68.80
30244;DHT22;64022;53.652;9.792;2023-10-31T02:13:11;21.30;68.90
30244;DHT22;64022;53.652;9.792;2023-10-31T02:15:37;21.30;68.80
30244;DHT22;64022;53.652;9.792;2023-10-31T02:18:02;21.30;68.80
30244;DHT22;64022;53.652;9.792;2023-10-31T02:20:28;21.30;68.80
30244;DHT22;64022;53.652;9.792;2023-10-31T02:22:53;21.30;68.80
30244;DHT22;64022;53.652;9.792;2023-10-31T02:25:18;21.30;68.80
30244;DHT22;64022;53.652;9.792;2023-10-31T02:27:44;21.30;68.80
30244;DHT22;64022;53.652;9.792;2023-10-31T02:30:10;21.30;68.80
30244;DHT22;64022;53.652;9.792;2023-10-31T02:32:35;21.30;68.80
30244;DHT22;64022;53.652;9.792;2023-10-31T02:35:01;21.30;68.80
30244;DHT22;64022;53.652;9.792;2023-10-31T02:37:26;21.30;68.80
30244;DHT22;64022;53.652;9.792;2023-10-31T02:39:52;21.30;68.80
30244;DHT22;64022;53.652;9.792;2023-10-31T02:42:17;21.30;68.80
30244;DHT22;64022;53.652;9.792;2023-10-31T02:44:43;21.30;68.80
30244;DHT22;64022;53.652;9.792;2023-10-31T02:47:08;21.30;68.80
30244;DHT22;64022;53.652;9.792;2023-10-31T02:49:34;21.30;68.80
30244;DHT22;64022;53.652;9.792;2023-10-31T02:51:59;21.30;68.80
30244;DHT22;64022;53.652;9.792;2023-10-31T02:54:24;21.30;68.80
30244;DHT22;64022;53.652;9.792;2023-10-31T02:56:50;21.30;68.90
30244;DHT22;64022;53.652;9.792;2023-10-31T02:59:15;21.30;69.40
30244;DHT22;64022;53.652;9.792;2023-10-31T03:01:41;21.30;68.90
30244;DHT22;64022;53.652;9.792;2023-10-31T03:04:06;21.30;68.90
30244;DHT22;64022;53.652;9.792;2023-10-31T03:06:31;21.30;68.90
30244;DHT22;64022;53.652;9.792;2023-10-31T03:08:57;21.30;68.90
30244;DHT22;64022;53.652;9.792;2023-10-31T03:11:26;21.30;68.90
30244;DHT22;64022;53.652;9.792;2023-10-31T03:13:52;21.40;69.00
30244;DHT22;64022;53.652;9.792;2023-10-31T03:16:18;21.30;68.90
30244;DHT22;64022;53.652;9.792;2023-10-31T03:18:45;21.30;68.90
30244;DHT22;64022;53.652;9.792;2023-10-31T03:21:11;21.30;68.90
30244;DHT22;64022;53.652;9.792;2023-10-31T03:23:36;21.30;68.90
30244;DHT22;64022;53.652;9.792;2023-10-31T03:26:02;21.30;68.90
30244;DHT22;64022;53.652;9.792;2023-10-31T03:28:27;21.30;68.90
30244;DHT22;64022;53.652;9.792;2023-10-31T03:30:53;21.30;68.90
30244;DHT22;64022;53.652;9.792;2023-10-31T03:33:18;21.30;68.90
30244;DHT22;64022;53.652;9.792;2023-10-31T03:35:44;21.30;68.90
30244;DHT22;64022;53.652;9.792;2023-10-31T03:38:09;21.30;68.90
30244;DHT22;64022;53.652;9.792;2023-10-31T03:40:35;21.30;68.90
30244;DHT22;64022;53.652;9.792;2023-10-31T03:43:00;21.30;68.90
30244;DHT22;64022;53.652;9.792;2023-10-31T03:45:26;21.30;69.00
30244;DHT22;64022;53.652;9.792;2023-10-31T03:47:51;21.30;68.90
30244;DHT22;64022;53.652;9.792;2023-10-31T03:50:17;21.30;69.00
30244;DHT22;64022;53.652;9.792;2023-10-31T03:52:42;21.30;69.00
30244;DHT22;64022;53.652;9.792;2023-10-31T03:55:08;21.30;69.00
30244;DHT22;64022;53.652;9.792;2023-10-31T03:57:33;21.30;69.00
30244;DHT22;64022;53.652;9.792;2023-10-31T03:59:59;21.30;69.00
30244;DHT22;64022;53.652;9.792;2023-10-31T04:02:24;21.30;69.00
30244;DHT22;64022;53.652;9.792;2023-10-31T04:04:49;21.30;69.00
30244;DHT22;64022;53.652;9.792;2023-10-31T04:07:15;21.30;69.00
30244;DHT22;64022;53.652;9.792;2023-10-31T04:09:40;21.30;69.00
30244;DHT22;64022;53.652;9.792;2023-10-31T04:12:06;21.30;69.00
30244;DHT22;64022;53.652;9.792;2023-10-31T04:14:31;21.40;69.10
30244;DHT22;64022;53.652;9.792;2023-10-31T04:16:57;21.40;69.10
30244;DHT22;64022;53.652;9.792;2023-10-31T04:19:22;21.30;69.00
30244;DHT22;64022;53.652;9.792;2023-10-31T04:21:48;21.30;69.00
30244;DHT22;64022;53.652;9.792;2023-10-31T04:24:13;21.30;69.00
30244;DHT22;64022;53.652;9.792;2023-10-31T04:26:40;21.30;69.00
30244;DHT22;64022;53.652;9.792;2023-10-31T04:29:05;21.30;69.00
30244;DHT22;64022;53.652;9.792;2023-10-31T04:31:31;21.30;69.00
30244;DHT22;64022;53.652;9.792;2023-10-31T04:33:56;21.30;69.10
30244;DHT22;64022;53.652;9.792;2023-10-31T04:36:21;21.30;69.10
30244;DHT22;64022;53.652;9.792;2023-10-31T04:38:47;21.30;69.10
30244;DHT22;64022;53.652;9.792;2023-10-31T04:41:12;21.30;69.10
30244;DHT22;64022;53.652;9.792;2023-10-31T04:43:38;21.30;69.10
30244;DHT22;64022;53.652;9.792;2023-10-31T04:46:07;21.30;69.10
30244;DHT22;64022;53.652;9.792;2023-10-31T04:48:32;21.40;69.10
30244;DHT22;64022;53.652;9.792;2023-10-31T04:50:58;21.30;69.10
30244;DHT22;64022;53.652;9.792;2023-10-31T04:53:23;21.30;69.10
30244;DHT22;64022;53.652;9.792;2023-10-31T04:55:49;21.30;69.10
30244;DHT22;64022;53.652;9.792;2023-10-31T04:58:14;21.40;69.20
30244;DHT22;64022;53.652;9.792;2023-10-31T05:00:40;21.40;69.20
30244;DHT22;64022;53.652;9.792;2023-10-31T05:03:06;21.30;69.10
30244;DHT22;64022;53.652;9.792;2023-10-31T05:05:32;21.30;69.10
30244;DHT22;64022;53.652;9.792;2023-10-31T05:07:57;21.30;69.10
30244;DHT22;64022;53.652;9.792;2023-10-31T05:10:23;21.40;69.20
30244;DHT22;64022;53.652;9.792;2023-10-31T05:12:49;21.40;69.70
30244;DHT22;64022;53.652;9.792;2023-10-31T05:15:16;21.40;69.20
30244;DHT22;64022;53.652;9.792;2023-10-31T05:17:41;21.40;69.20
30244;DHT22;64022;53.652;9.792;2023-10-31T05:20:07;21.30;69.20
30244;DHT22;64022;53.652;9.792;2023-10-31T05:22:34;21.30;69.70
30244;DHT22;64022;53.652;9.792;2023-10-31T05:24:59;21.40;69.20
30244;DHT22;64022;53.652;9.792;2023-10-31T05:27:25;21.40;69.20
30244;DHT22;64022;53.652;9.792;2023-10-31T05:29:50;21.30;69.20
30244;DHT22;64022;53.652;9.792;2023-10-31T05:32:16;21.30;69.20
30244;DHT22;64022;53.652;9.792;2023-10-31T05:34:41;21.40;69.30
30244;DHT22;64022;53.652;9.792;2023-10-31T05:37:07;21.30;69.20
30244;DHT22;64022;53.652;9.792;2023-10-31T05:39:32;21.30;69.20
30244;DHT22;64022;53.652;9.792;2023-10-31T05:41:58;21.40;69.30
30244;DHT22;64022;53.652;9.792;2023-10-31T05:44:23;21.30;69.20
30244;DHT22;64022;53.652;9.792;2023-10-31T05:46:49;21.40;69.30
30244;DHT22;64022;53.652;9.792;2023-10-31T05:49:14;21.30;69.30
30244;DHT22;64022;53.652;9.792;2023-10-31T05:51:40;21.40;69.30
30244;DHT22;64022;53.652;9.792;2023-10-31T05:54:06;21.40;69.30
30244;DHT22;64022;53.652;9.792;2023-10-31T05:56:32;21.30;69.30
30244;DHT22;64022;53.652;9.792;2023-10-31T05:58:57;21.30;69.30
30244;DHT22;64022;53.652;9.792;2023-10-31T06:01:23;21.40;69.40
30244;DHT22;64022;53.652;9.792;2023-10-31T06:03:48;21.40;69.30
30244;DHT22;64022;53.652;9.792;2023-10-31T06:06:14;21.30;69.30
30244;DHT22;64022;53.652;9.792;2023-10-31T06:08:39;21.40;69.40
30244;DHT22;64022;53.652;9.792;2023-10-31T06:11:05;21.40;69.40
30244;DHT22;64022;53.652;9.792;2023-10-31T06:13:30;21.40;69.40
30244;DHT22;64022;53.652;9.792;2023-10-31T06:15:57;21.30;69.30
30244;DHT22;64022;53.652;9.792;2023-10-31T06:18:23;21.30;69.30
30244;DHT22;64022;53.652;9.792;2023-10-31T06:20:48;21.30;69.40
30244;DHT22;64022;53.652;9.792;2023-10-31T06:23:14;21.40;69.40
30244;DHT22;64022;53.652;9.792;2023-10-31T06:25:40;21.40;69.40
30244;DHT22;64022;53.652;9.792;2023-10-31T06:28:05;21.40;69.40
30244;DHT22;64022;53.652;9.792;2023-10-31T06:30:30;21.40;69.40
30244;DHT22;64022;53.652;9.792;2023-10-31T06:32:56;21.40;69.50
30244;DHT22;64022;53.652;9.792;2023-10-31T06:35:22;21.40;69.50
30244;DHT22;64022;53.652;9.792;2023-10-31T06:37:50;21.40;69.50
30244;DHT22;64022;53.652;9.792;2023-10-31T06:40:15;21.40;69.50
30244;DHT22;64022;53.652;9.792;2023-10-31T06:42:40;21.40;69.50
30244;DHT22;64022;53.652;9.792;2023-10-31T06:45:06;21.40;69.50
30244;DHT22;64022;53.652;9.792;2023-10-31T06:47:32;21.40;69.60
30244;DHT22;64022;53.652;9.792;2023-10-31T06:49:58;21.40;69.60
30244;DHT22;64022;53.652;9.792;2023-10-31T06:52:23;21.40;69.60
30244;DHT22;64022;53.652;9.792;2023-10-31T06:54:48;21.40;69.60
30244;DHT22;64022;53.652;9.792;2023-10-31T06:57:14;21.40;69.70
30244;DHT22;64022;53.652;9.792;2023-10-31T06:59:41;21.40;69.70
30244;DHT22;64022;53.652;9.792;2023-10-31T07:02:07;21.40;69.70
30244;DHT22;64022;53.652;9.792;2023-10-31T07:04:32;21.40;69.70
30244;DHT22;64022;53.652;9.792;2023-10-31T07:06:59;21.40;69.70
30244;DHT22;64022;53.652;9.792;2023-10-31T07:09:25;21.40;69.70
30244;DHT22;64022;53.652;9.792;2023-10-31T07:11:51;21.50;69.90
30244;DHT22;64022;53.652;9.792;2023-10-31T07:14:16;21.40;69.80
30244;DHT22;64022;53.652;9.792;2023-10-31T07:16:42;21.40;69.80
30244;DHT22;64022;53.652;9.792;2023-10-31T07:19:09;21.40;69.80
30244;DHT22;64022;53.652;9.792;2023-10-31T07:21:35;21.40;69.90
30244;DHT22;64022;53.652;9.792;2023-10-31T07:24:00;21.50;70.00
30244;DHT22;64022;53.652;9.792;2023-10-31T07:26:26;21.50;70.00
30244;DHT22;64022;53.652;9.792;2023-10-31T07:28:52;21.50;70.00
30244;DHT22;64022;53.652;9.792;2023-10-31T07:31:18;21.50;70.00
30244;DHT22;64022;53.652;9.792;2023-10-31T07:33:44;21.50;70.00
30244;DHT22;64022;53.652;9.792;2023-10-31T07:36:10;21.50;70.10
30244;DHT22;64022;53.652;9.792;2023-10-31T07:38:35;21.50;70.10
30244;DHT22;64022;53.652;9.792;2023-10-31T07:41:01;21.50;70.10
30244;DHT22;64022;53.652;9.792;2023-10-31T07:43:26;21.50;70.10
30244;DHT22;64022;53.652;9.792;2023-10-31T07:45:52;21.50;70.20
30244;DHT22;64022;53.652;9.792;2023-10-31T07:48:17;21.50;70.20
30244;DHT22;64022;53.652;9.792;2023-10-31T07:50:43;21.50;70.20
30244;DHT22;64022;53.652;9.792;2023-10-31T07:53:08;21.50;70.20
30244;DHT22;64022;53.652;9.792;2023-10-31T07:55:34;21.50;70.20
30244;DHT22;64022;53.652;9.792;2023-10-31T07:57:59;21.50;70.20
30244;DHT22;64022;53.652;9.792;2023-10-31T08:00:24;21.50;70.30
30244;DHT22;64022;53.652;9.792;2023-10-31T08:02:50;21.50;70.30
30244;DHT22;64022;53.652;9.792;2023-10-31T08:05:15;21.50;70.30
30244;DHT22;64022;53.652;9.792;2023-10-31T08:07:41;21.50;70.30
30244;DHT22;64022;53.652;9.792;2023-10-31T08:10:06;21.50;70.30
30244;DHT22;64022;53.652;9.792;2023-10-31T08:12:32;21.50;70.30
30244;DHT22;64022;53.652;9.792;2023-10-31T08:14:57;21.50;70.40
30244;DHT22;64022;53.652;9.792;2023-10-31T08:17:24;21.50;70.40
30244;DHT22;64022;53.652;9.792;2023-10-31T08:19:49;21.50;70.40
30244;DHT22;64022;53.652;9.792;2023-10-31T08:22:15;21.50;70.40
30244;DHT22;64022;53.652;9.792;2023-10-31T08:24:40;21.50;70.40
30244;DHT22;64022;53.652;9.792;2023-10-31T08:27:05;21.50;70.50
30244;DHT22;64022;53.652;9.792;2023-10-31T08:29:32;21.50;70.50
30244;DHT22;64022;53.652;9.792;2023-10-31T08:31:58;21.50;70.50
30244;DHT22;64022;53.652;9.792;2023-10-31T08:34:23;21.50;70.50
30244;DHT22;64022;53.652;9.792;2023-10-31T08:36:48;21.50;70.50
30244;DHT22;64022;53.652;9.792;2023-10-31T08:39:14;21.50;70.50
30244;DHT22;64022;53.652;9.792;2023-10-31T08:41:55;21.50;70.50
30244;DHT22;64022;53.652;9.792;2023-10-31T08:44:21;21.50;70.60
30244;DHT22;64022;53.652;9.792;2023-10-31T08:46:46;21.50;70.60
30244;DHT22;64022;53.652;9.792;2023-10-31T08:49:12;21.50;70.60
30244;DHT22;64022;53.652;9.792;2023-10-31T08:51:37;21.50;70.60
30244;DHT22;64022;53.652;9.792;2023-10-31T08:54:03;21.50;70.60
30244;DHT22;64022;53.652;9.792;2023-10-31T08:56:28;21.50;70.60
30244;DHT22;64022;53.652;9.792;2023-10-31T08:58:54;21.60;70.70
30244;DHT22;64022;53.652;9.792;2023-10-31T09:01:19;21.60;70.70
30244;DHT22;64022;53.652;9.792;2023-10-31T09:03:45;21.60;70.70
30244;DHT22;64022;53.652;9.792;2023-10-31T09:06:10;21.50;70.70
30244;DHT22;64022;53.652;9.792;2023-10-31T09:08:36;21.50;70.70
30244;DHT22;64022;53.652;9.792;2023-10-31T09:11:05;21.60;70.80
30244;DHT22;64022;53.652;9.792;2023-10-31T09:13:30;21.50;70.80
30244;DHT22;64022;53.652;9.792;2023-10-31T09:15:59;21.60;70.80
30244;DHT22;64022;53.652;9.792;2023-10-31T09:18:25;21.60;70.80
30244;DHT22;64022;53.652;9.792;2023-10-31T09:20:51;21.60;70.80
30244;DHT22;64022;53.652;9.792;2023-10-31T09:23:16;21.50;70.80
30244;DHT22;64022;53.652;9.792;2023-10-31T09:25:45;21.50;70.80
30244;DHT22;64022;53.652;9.792;2023-10-31T09:28:11;21.60;70.90
30244;DHT22;64022;53.652;9.792;2023-10-31T09:30:36;21.50;70.80
30244;DHT22;64022;53.652;9.792;2023-10-31T09:33:02;21.50;70.80
30244;DHT22;64022;53.652;9.792;2023-10-31T09:35:27;21.50;70.80
30244;DHT22;64022;53.652;9.792;2023-10-31T09:37:53;21.60;70.90
30244;DHT22;64022;53.652;9.792;2023-10-31T09:40:19;21.50;70.90
30244;DHT22;64022;53.652;9.792;2023-10-31T09:42:44;21.60;70.90
30244;DHT22;64022;53.652;9.792;2023-10-31T09:45:11;21.60;70.90
30244;DHT22;64022;53.652;9.792;2023-10-31T09:47:37;21.50;70.90
30244;DHT22;64022;53.652;9.792;2023-10-31T09:50:02;21.60;71.00
30244;DHT22;64022;53.652;9.792;2023-10-31T09:52:28;21.50;70.90
30244;DHT22;64022;53.652;9.792;2023-10-31T09:54:54;21.60;71.00
30244;DHT22;64022;53.652;9.792;2023-10-31T09:57:20;21.60;71.00
30244;DHT22;64022;53.652;9.792;2023-10-31T09:59:45;21.60;71.00
30244;DHT22;64022;53.652;9.792;2023-10-31T10:02:10;21.60;71.00
30244;DHT22;64022;53.652;9.792;2023-10-31T10:04:37;21.60;71.00
30244;DHT22;64022;53.652;9.792;2023-10-31T10:07:02;21.60;71.00
30244;DHT22;64022;53.652;9.792;2023-10-31T10:09:28;21.60;71.00
30244;DHT22;64022;53.652;9.792;2023-10-31T10:11:54;21.50;71.00
30244;DHT22;64022;53.652;9.792;2023-10-31T10:14:22;21.60;71.00
30244;DHT22;64022;53.652;9.792;2023-10-31T10:16:48;21.60;71.00
30244;DHT22;64022;53.652;9.792;2023-10-31T10:19:17;21.60;71.00
30244;DHT22;64022;53.652;9.792;2023-10-31T10:24:13;21.60;71.10
30244;DHT22;64022;53.652;9.792;2023-10-31T10:26:38;21.60;71.10
30244;DHT22;64022;53.652;9.792;2023-10-31T10:29:04;21.60;71.10
30244;DHT22;64022;53.652;9.792;2023-10-31T10:31:29;21.60;71.10
30244;DHT22;64022;53.652;9.792;2023-10-31T10:33:55;21.60;71.10
30244;DHT22;64022;53.652;9.792;2023-10-31T10:36:20;21.60;71.10
30244;DHT22;64022;53.652;9.792;2023-10-31T10:38:46;21.60;71.10
30244;DHT22;64022;53.652;9.792;2023-10-31T10:41:13;21.60;71.10
30244;DHT22;64022;53.652;9.792;2023-10-31T10:43:40;21.60;71.10
30244;DHT22;64022;53.652;9.792;2023-10-31T10:46:05;21.60;71.10
30244;DHT22;64022;53.652;9.792;2023-10-31T10:48:32;21.60;71.10
30244;DHT22;64022;53.652;9.792;2023-10-31T10:51:04;21.60;71.10
30244;DHT22;64022;53.652;9.792;2023-10-31T10:53:34;21.60;71.10
30244;DHT22;64022;53.652;9.792;2023-10-31T10:56:03;21.60;71.10
30244;DHT22;64022;53.652;9.792;2023-10-31T11:00:58;21.60;71.10
30244;DHT22;64022;53.652;9.792;2023-10-31T11:03:24;21.60;71.10
30244;DHT22;64022;53.652;9.792;2023-10-31T11:05:50;21.60;71.10
30244;DHT22;64022;53.652;9.792;2023-10-31T11:08:16;21.60;71.10
30244;DHT22;64022;53.652;9.792;2023-10-31T11:10:41;21.60;71.10
30244;DHT22;64022;53.652;9.792;2023-10-31T11:13:07;21.60;71.10
30244;DHT22;64022;53.652;9.792;2023-10-31T11:15:33;21.60;71.10
30244;DHT22;64022;53.652;9.792;2023-10-31T11:17:59;21.60;71.10
30244;DHT22;64022;53.652;9.792;2023-10-31T11:20:25;21.60;71.10
30244;DHT22;64022;53.652;9.792;2023-10-31T11:22:54;21.60;71.10
30244;DHT22;64022;53.652;9.792;2023-10-31T11:25:20;21.60;71.10
30244;DHT22;64022;53.652;9.792;2023-10-31T11:27:49;21.60;71.10
30244;DHT22;64022;53.652;9.792;2023-10-31T11:32:52;21.60;71.10
30244;DHT22;64022;53.652;9.792;2023-10-31T11:35:17;21.60;71.10
30244;DHT22;64022;53.652;9.792;2023-10-31T11:37:43;21.60;71.10
30244;DHT22;64022;53.652;9.792;2023-10-31T11:42:38;21.60;71.10
30244;DHT22;64022;53.652;9.792;2023-10-31T11:45:04;21.60;71.10
30244;DHT22;64022;53.652;9.792;2023-10-31T11:47:45;21.60;71.10
30244;DHT22;64022;53.652;9.792;2023-10-31T11:50:11;21.60;71.10
30244;DHT22;64022;53.652;9.792;2023-10-31T11:52:37;21.60;71.10
30244;DHT22;64022;53.652;9.792;2023-10-31T11:55:02;21.60;71.10
30244;DHT22;64022;53.652;9.792;2023-10-31T11:57:28;21.60;71.10
30244;DHT22;64022;53.652;9.792;2023-10-31T11:59:54;21.60;71.10
30244;DHT22;64022;53.652;9.792;2023-10-31T12:02:19;21.60;71.10
30244;DHT22;64022;53.652;9.792;2023-10-31T12:04:46;21.60;71.10
30244;DHT22;64022;53.652;9.792;2023-10-31T12:07:11;21.60;71.10
30244;DHT22;64022;53.652;9.792;2023-10-31T12:09:46;21.60;71.10
30244;DHT22;64022;53.652;9.792;2023-10-31T12:12:12;21.60;71.10
30244;DHT22;64022;53.652;9.792;2023-10-31T12:14:37;21.60;71.10
30244;DHT22;64022;53.652;9.792;2023-10-31T12:17:03;21.60;71.10
30244;DHT22;64022;53.652;9.792;2023-10-31T12:19:29;21.60;71.10
30244;DHT22;64022;53.652;9.792;2023-10-31T12:21:55;21.60;71.20
30244;DHT22;64022;53.652;9.792;2023-10-31T12:24:21;21.60;71.10
30244;DHT22;64022;53.652;9.792;2023-10-31T12:26:47;21.60;71.10
30244;DHT22;64022;53.652;9.792;2023-10-31T12:31:48;21.60;71.10
30244;DHT22;64022;53.652;9.792;2023-10-31T12:34:14;21.60;71.10
30244;DHT22;64022;53.652;9.792;2023-10-31T12:36:40;21.60;71.10
30244;DHT22;64022;53.652;9.792;2023-10-31T12:39:07;21.70;71.20
30244;DHT22;64022;53.652;9.792;2023-10-31T12:41:34;21.60;71.10
30244;DHT22;64022;53.652;9.792;2023-10-31T12:44:00;21.60;71.10
30244;DHT22;64022;53.652;9.792;2023-10-31T12:46:29;21.70;71.20
30244;DHT22;64022;53.652;9.792;2023-10-31T12:48:55;21.70;71.70
30244;DHT22;64022;53.652;9.792;2023-10-31T12:51:21;21.60;71.10
30244;DHT22;64022;53.652;9.792;2023-10-31T12:53:50;21.60;71.10
30244;DHT22;64022;53.652;9.792;2023-10-31T12:56:34;21.60;71.10
30244;DHT22;64022;53.652;9.792;2023-10-31T12:58:59;21.70;71.20
30244;DHT22;64022;53.652;9.792;2023-10-31T13:01:25;21.70;71.20
30244;DHT22;64022;53.652;9.792;2023-10-31T13:03:51;21.60;71.10
30244;DHT22;64022;53.652;9.792;2023-10-31T13:06:17;21.70;71.20
30244;DHT22;64022;53.652;9.792;2023-10-31T13:08:45;21.70;71.20
30244;DHT22;64022;53.652;9.792;2023-10-31T13:11:10;21.70;71.20
30244;DHT22;64022;53.652;9.792;2023-10-31T13:13:36;21.60;71.10
30244;DHT22;64022;53.652;9.792;2023-10-31T13:16:01;21.70;71.20
30244;DHT22;64022;53.652;9.792;2023-10-31T13:18:27;21.70;71.20
30244;DHT22;64022;53.652;9.792;2023-10-31T13:20:52;21.70;71.20
30244;DHT22;64022;53.652;9.792;2023-10-31T13:23:19;21.70;71.20
30244;DHT22;64022;53.652;9.792;2023-10-31T13:25:45;21.70;71.20
30244;DHT22;64022;53.652;9.792;2023-10-31T13:28:11;21.70;71.20
30244;DHT22;64022;53.652;9.792;2023-10-31T13:30:37;21.70;71.20
30244;DHT22;64022;53.652;9.792;2023-10-31T13:33:03;21.70;71.20
30244;DHT22;64022;53.652;9.792;2023-10-31T13:35:28;21.70;71.20
30244;DHT22;64022;53.652;9.792;2023-10-31T13:37:54;21.70;71.20
30244;DHT22;64022;53.652;9.792;2023-10-31T13:40:19;21.70;71.20
30244;DHT22;64022;53.652;9.792;2023-10-31T13:42:45;21.70;71.20
30244;DHT22;64022;53.652;9.792;2023-10-31T13:45:10;21.70;71.20
30244;DHT22;64022;53.652;9.792;2023-10-31T13:47:36;21.70;71.20
30244;DHT22;64022;53.652;9.792;2023-10-31T13:50:03;21.70;71.30
30244;DHT22;64022;53.652;9.792;2023-10-31T13:52:29;21.70;71.30
30244;DHT22;64022;53.652;9.792;2023-10-31T13:54:55;21.70;71.30
30244;DHT22;64022;53.652;9.792;2023-10-31T13:57:20;21.70;71.30
30244;DHT22;64022;53.652;9.792;2023-10-31T13:59:49;21.70;71.30
30244;DHT22;64022;53.652;9.792;2023-10-31T14:02:15;21.70;71.30
30244;DHT22;64022;53.652;9.792;2023-10-31T14:04:41;21.70;71.30
30244;DHT22;64022;53.652;9.792;2023-10-31T14:07:07;21.70;71.30
30244;DHT22;64022;53.652;9.792;2023-10-31T14:09:32;21.70;71.30
30244;DHT22;64022;53.652;9.792;2023-10-31T14:11:58;21.70;71.30
30244;DHT22;64022;53.652;9.792;2023-10-31T14:14:24;21.70;71.30
30244;DHT22;64022;53.652;9.792;2023-10-31T14:16:49;21.70;71.30
30244;DHT22;64022;53.652;9.792;2023-10-31T14:19:15;21.70;71.30
30244;DHT22;64022;53.652;9.792;2023-10-31T14:21:41;21.70;71.30
30244;DHT22;64022;53.652;9.792;2023-10-31T14:24:07;21.70;71.30
30244;DHT22;64022;53.652;9.792;2023-10-31T14:26:33;21.70;71.40
30244;DHT22;64022;53.652;9.792;2023-10-31T14:28:59;21.70;71.40
30244;DHT22;64022;53.652;9.792;2023-10-31T14:31:25;21.70;71.90
30244;DHT22;64022;53.652;9.792;2023-10-31T14:33:51;21.70;71.40
30244;DHT22;64022;53.652;9.792;2023-10-31T14:36:16;21.70;71.40
30244;DHT22;64022;53.652;9.792;2023-10-31T14:38:42;21.70;71.40
30244;DHT22;64022;53.652;9.792;2023-10-31T14:41:07;21.70;71.40
30244;DHT22;64022;53.652;9.792;2023-10-31T14:43:33;21.70;71.40
30244;DHT22;64022;53.652;9.792;2023-10-31T14:45:59;21.70;71.40
30244;DHT22;64022;53.652;9.792;2023-10-31T14:48:25;21.70;71.40
30244;DHT22;64022;53.652;9.792;2023-10-31T14:50:50;21.70;71.40
30244;DHT22;64022;53.652;9.792;2023-10-31T14:53:16;21.70;71.40
30244;DHT22;64022;53.652;9.792;2023-10-31T14:55:42;21.70;71.30
30244;DHT22;64022;53.652;9.792;2023-10-31T14:58:07;21.70;71.30
30244;DHT22;64022;53.652;9.792;2023-10-31T15:00:36;21.70;71.30
30244;DHT22;64022;53.652;9.792;2023-10-31T15:03:01;21.70;71.30
30244;DHT22;64022;53.652;9.792;2023-10-31T15:05:27;21.70;71.30
30244;DHT22;64022;53.652;9.792;2023-10-31T15:07:52;21.70;71.30
30244;DHT22;64022;53.652;9.792;2023-10-31T15:10:21;21.70;71.20
30244;DHT22;64022;53.652;9.792;2023-10-31T15:12:47;21.70;71.20
30244;DHT22;64022;53.652;9.792;2023-10-31T15:15:14;21.70;71.20
30244;DHT22;64022;53.652;9.792;2023-10-31T15:17:39;21.70;71.20
30244;DHT22;64022;53.652;9.792;2023-10-31T15:20:05;21.70;71.10
30244;DHT22;64022;53.652;9.792;2023-10-31T15:22:31;21.70;71.10
30244;DHT22;64022;53.652;9.792;2023-10-31T15:24:57;21.70;71.10
30244;DHT22;64022;53.652;9.792;2023-10-31T15:27:22;21.70;71.10
30244;DHT22;64022;53.652;9.792;2023-10-31T15:29:48;21.70;71.00
30244;DHT22;64022;53.652;9.792;2023-10-31T15:32:14;21.70;71.00
30244;DHT22;64022;53.652;9.792;2023-10-31T15:34:39;21.60;70.90